Time;durP1;ratioP1;P1;durP2;ratioP2;P2;SDS_P1;SDS_P2;PMS_P1;PMS_P2;Temp;Humidity;BMP_temperature;BMP_pressure;BME280_temperature;BME280_humidity;BME280_pressure;Samples;Min_cycle;Max_cycle;Signal;HPM_P1;HPM_P2
2021/03/03 00:01:52;;;;;;;32.10;20.00;;;8.30;75.10;;;;;;4913043;29;20115;-74
2021/03/03 00:04:18;;;;;;;33.93;19.73;;;8.30;75.20;;;;;;4924998;29;20040;-73
2021/03/03 00:06:43;;;;;;;32.80;19.20;;;8.30;75.20;;;;;;4915435;29;20568;-73
2021/03/03 00:09:09;;;;;;;32.83;18.77;;;8.30;75.10;;;;;;4915420;29;20076;-74
2021/03/03 00:11:34;;;;;;;35.83;19.17;;;8.20;75.20;;;;;;4915466;29;20028;-74
2021/03/03 00:14:00;;;;;;;34.60;18.53;;;8.20;75.20;;;;;;4914223;29;20059;-74
2021/03/03 00:16:27;;;;;;;29.60;16.87;;;8.20;75.40;;;;;;4915077;29;20044;-72
2021/03/03 00:18:52;;;;;;;31.37;18.87;;;8.20;75.40;;;;;;4915145;29;20537;-73
2021/03/03 00:21:18;;;;;;;27.73;16.77;;;8.10;75.50;;;;;;4915759;29;20066;-73
2021/03/03 00:23:43;;;;;;;29.97;17.43;;;8.10;75.50;;;;;;4900170;29;20378;-73
2021/03/03 00:26:09;;;;;;;27.97;16.00;;;8.10;75.40;;;;;;4915679;29;20028;-73
2021/03/03 00:28:35;;;;;;;30.80;17.33;;;8.00;75.50;;;;;;4916367;29;20476;-73
2021/03/03 00:31:00;;;;;;;32.87;19.03;;;7.90;75.60;;;;;;4913628;29;20040;-74
2021/03/03 00:33:26;;;;;;;30.90;17.10;;;7.90;75.90;;;;;;4915011;29;20043;-74
2021/03/03 00:35:52;;;;;;;35.00;17.57;;;7.90;75.90;;;;;;4915005;29;20172;-75
2021/03/03 00:38:17;;;;;;;29.97;17.00;;;7.80;76.00;;;;;;4915720;29;20036;-73
2021/03/03 00:40:43;;;;;;;30.43;17.77;;;7.80;76.10;;;;;;4914953;29;20084;-73
2021/03/03 00:43:08;;;;;;;27.17;17.00;;;7.80;76.10;;;;;;4915649;29;20453;-73
2021/03/03 00:45:34;;;;;;;27.77;16.47;;;7.80;76.20;;;;;;4916014;29;20046;-73
2021/03/03 00:48:00;;;;;;;29.97;17.07;;;7.70;76.20;;;;;;4915174;29;20040;-75
2021/03/03 00:50:26;;;;;;;26.17;16.17;;;7.70;76.20;;;;;;4918222;29;20064;-73
2021/03/03 00:52:51;;;;;;;29.57;16.80;;;7.70;76.30;;;;;;4914985;29;20396;-74
2021/03/03 00:55:17;;;;;;;29.53;16.80;;;7.70;76.40;;;;;;4898011;29;20130;-74
2021/03/03 00:57:44;;;;;;;28.87;16.40;;;7.70;76.50;;;;;;4914503;29;20083;-74
2021/03/03 01:00:10;;;;;;;30.40;16.77;;;7.70;76.50;;;;;;4912984;29;20048;-74
2021/03/03 01:02:35;;;;;;;31.03;16.60;;;7.70;76.50;;;;;;4898481;29;20099;-74
2021/03/03 01:05:02;;;;;;;30.23;16.83;;;7.60;76.50;;;;;;4898286;29;20122;-75
2021/03/03 01:07:27;;;;;;;29.63;15.33;;;7.60;76.70;;;;;;4914003;29;20039;-72
2021/03/03 01:09:53;;;;;;;29.40;15.73;;;7.60;76.70;;;;;;4913880;29;20043;-73
2021/03/03 01:12:19;;;;;;;27.97;16.10;;;7.60;76.70;;;;;;4897676;29;20600;-72
2021/03/03 01:14:44;;;;;;;32.10;15.63;;;7.60;76.90;;;;;;4913991;29;20524;-73
2021/03/03 01:17:10;;;;;;;29.70;15.77;;;7.70;76.80;;;;;;4882169;29;20040;-73
2021/03/03 01:19:36;;;;;;;29.03;15.37;;;7.70;76.60;;;;;;4914965;29;20032;-72
2021/03/03 01:22:01;;;;;;;24.50;15.10;;;7.70;76.60;;;;;;4913935;29;20362;-73
2021/03/03 01:24:27;;;;;;;26.10;14.97;;;7.70;76.60;;;;;;4897900;29;20508;-72
2021/03/03 01:26:52;;;;;;;28.97;15.67;;;7.60;76.90;;;;;;4897999;29;20433;-72
2021/03/03 01:29:18;;;;;;;27.70;14.60;;;7.60;76.70;;;;;;4913120;29;20548;-72
2021/03/03 01:31:44;;;;;;;27.23;14.97;;;7.60;76.80;;;;;;4913948;29;20028;-72
2021/03/03 01:34:09;;;;;;;26.20;14.83;;;7.60;76.60;;;;;;4913570;29;20095;-72
2021/03/03 01:36:35;;;;;;;26.03;14.30;;;7.50;76.60;;;;;;4913673;29;20092;-72
2021/03/03 01:39:01;;;;;;;27.40;14.23;;;7.50;76.60;;;;;;4897319;29;20040;-72
2021/03/03 01:41:26;;;;;;;26.30;14.43;;;7.50;76.60;;;;;;4901615;29;20064;-72
2021/03/03 01:43:52;;;;;;;24.97;14.80;;;7.40;76.60;;;;;;4896314;29;20036;-73
2021/03/03 01:46:18;;;;;;;27.43;14.77;;;7.40;76.90;;;;;;4911059;29;20039;-73
2021/03/03 01:48:43;;;;;;;24.03;14.30;;;7.30;77.00;;;;;;4900086;29;20524;-73
2021/03/03 01:51:09;;;;;;;26.13;14.03;;;7.30;77.30;;;;;;4913646;29;20032;-74
2021/03/03 01:53:36;;;;;;;25.93;14.10;;;7.30;77.20;;;;;;4898953;29;20043;-73
2021/03/03 01:56:02;;;;;;;25.93;13.53;;;7.30;77.10;;;;;;4899577;29;20037;-74
2021/03/03 01:58:27;;;;;;;25.23;13.97;;;7.30;77.30;;;;;;4912455;29;20277;-73
2021/03/03 02:00:53;;;;;;;21.93;13.47;;;7.30;77.40;;;;;;4916948;29;20462;-73
2021/03/03 02:03:20;;;;;;;26.07;14.60;;;7.30;77.10;;;;;;4916590;29;20396;-72
2021/03/03 02:05:46;;;;;;;27.73;14.27;;;7.30;77.00;;;;;;4901386;29;20135;-72
2021/03/03 02:08:20;;;;;;;26.77;13.90;;;7.20;76.90;;;;;;4901011;29;20067;-72
2021/03/03 02:11:09;;;;;;;30.23;15.03;;;7.20;76.80;;;;;;4917290;29;20028;-73
2021/03/03 02:13:43;;;;;;;29.80;14.87;;;7.20;76.60;;;;;;4918267;29;20108;-73
2021/03/03 02:16:10;;;;;;;30.30;15.30;;;7.10;76.50;;;;;;4916419;29;20048;-74
2021/03/03 02:18:37;;;;;;;30.43;14.53;;;7.10;76.40;;;;;;4917337;29;20032;-73
2021/03/03 02:21:16;;;;;;;29.80;15.63;;;7.10;76.10;;;;;;4916696;29;20036;-73
2021/03/03 02:24:04;;;;;;;29.97;15.57;;;7.10;76.10;;;;;;4916987;29;20036;-73
2021/03/03 02:26:33;;;;;;;33.67;16.00;;;7.10;76.00;;;;;;4915589;29;20032;-73
2021/03/03 02:29:21;;;;;;;30.43;15.90;;;7.00;75.80;;;;;;4916647;29;20036;-73
2021/03/03 02:31:50;;;;;;;29.93;15.33;;;6.90;75.90;;;;;;4896970;29;20079;-73
2021/03/03 02:34:20;;;;;;;30.93;14.57;;;6.90;76.10;;;;;;4917387;29;20020;-73
2021/03/03 02:36:49;;;;;;;26.63;14.50;;;6.90;76.70;;;;;;4917917;29;20107;-73
2021/03/03 02:39:16;;;;;;;29.80;15.63;;;6.90;76.30;;;;;;4917659;29;20087;-73
2021/03/03 02:41:42;;;;;;;31.73;16.23;;;6.90;76.30;;;;;;4916643;29;20031;-73
2021/03/03 02:44:08;;;;;;;27.13;15.03;;;6.90;76.30;;;;;;4915909;29;20047;-74
2021/03/03 02:46:35;;;;;;;29.03;14.47;;;6.90;76.30;;;;;;4914880;29;20032;-73
2021/03/03 02:49:02;;;;;;;33.50;15.30;;;6.90;76.50;;;;;;4916812;29;20091;-73
2021/03/03 02:51:28;;;;;;;29.37;15.23;;;7.00;76.50;;;;;;4916617;29;20032;-73
2021/03/03 02:53:54;;;;;;;29.33;15.53;;;7.00;76.20;;;;;;4917665;29;20385;-73
2021/03/03 02:56:20;;;;;;;25.37;14.43;;;6.90;76.30;;;;;;4899430;29;20392;-73
2021/03/03 02:58:45;;;;;;;29.00;14.60;;;7.00;76.30;;;;;;4916558;29;20119;-73
2021/03/03 03:01:14;;;;;;;26.17;14.43;;;7.00;76.20;;;;;;4915528;29;20043;-74
2021/03/03 03:03:44;;;;;;;27.40;14.03;;;7.10;76.20;;;;;;4917864;29;20077;-73
2021/03/03 03:06:13;;;;;;;26.77;13.90;;;7.10;76.30;;;;;;4917120;29;20115;-73
2021/03/03 03:08:40;;;;;;;27.93;14.50;;;7.10;76.30;;;;;;4917585;29;20032;-73
2021/03/03 03:11:08;;;;;;;27.53;15.13;;;7.10;76.10;;;;;;4917251;29;20028;-73
2021/03/03 03:13:35;;;;;;;29.33;14.13;;;7.10;76.00;;;;;;4915363;29;20012;-73
2021/03/03 03:16:06;;;;;;;27.07;13.80;;;7.20;76.00;;;;;;4915501;29;20058;-73
2021/03/03 03:18:35;;;;;;;23.57;12.63;;;7.20;76.20;;;;;;4916582;29;20131;-74
2021/03/03 03:21:02;;;;;;;24.10;13.43;;;7.20;76.30;;;;;;4897257;29;20466;-74
2021/03/03 03:23:30;;;;;;;22.97;12.53;;;7.20;76.50;;;;;;4896189;29;20037;-74
2021/03/03 03:25:56;;;;;;;26.17;13.20;;;7.20;76.60;;;;;;4898397;29;20071;-74
2021/03/03 03:28:23;;;;;;;23.73;13.80;;;7.30;76.70;;;;;;4910486;29;20032;-74
2021/03/03 03:30:52;;;;;;;21.97;12.53;;;7.30;76.80;;;;;;4902790;29;20051;-74
2021/03/03 03:33:19;;;;;;;22.57;13.07;;;7.30;76.80;;;;;;4899003;29;20065;-75
2021/03/03 03:35:46;;;;;;;26.67;13.30;;;7.30;77.30;;;;;;4917062;29;20039;-74
2021/03/03 03:38:12;;;;;;;22.10;13.03;;;7.30;77.30;;;;;;4917142;29;20035;-74
2021/03/03 03:40:38;;;;;;;23.33;13.83;;;7.30;77.30;;;;;;4914708;29;20028;-74
2021/03/03 03:43:07;;;;;;;27.43;13.63;;;7.30;77.40;;;;;;4915566;29;20091;-74
2021/03/03 03:45:35;;;;;;;25.10;13.43;;;7.30;77.40;;;;;;4915863;29;20036;-75
2021/03/03 03:48:02;;;;;;;26.90;13.53;;;7.30;77.50;;;;;;4924921;29;20029;-75
2021/03/03 03:50:28;;;;;;;28.63;13.87;;;7.30;77.50;;;;;;4912116;29;20048;-74
2021/03/03 03:52:55;;;;;;;26.57;13.23;;;7.10;77.20;;;;;;4915213;29;20028;-74
2021/03/03 03:55:33;;;;;;;22.17;13.37;;;7.10;77.40;;;;;;4898652;29;20151;-75
2021/03/03 03:58:00;;;;;;;24.40;13.73;;;7.20;77.50;;;;;;4915952;29;20040;-74
2021/03/03 04:00:26;;;;;;;20.57;13.17;;;7.20;77.20;;;;;;4915713;29;20028;-72
2021/03/03 04:02:52;;;;;;;20.43;12.27;;;7.20;77.40;;;;;;4915496;29;20099;-75
2021/03/03 04:05:18;;;;;;;28.63;13.83;;;7.20;77.30;;;;;;4915762;29;20092;-73
2021/03/03 04:07:44;;;;;;;24.70;12.90;;;7.20;77.30;;;;;;4883685;29;20032;-73
2021/03/03 04:10:12;;;;;;;23.30;12.87;;;7.10;77.30;;;;;;4915537;29;20048;-73
2021/03/03 04:12:38;;;;;;;25.23;13.87;;;7.20;77.60;;;;;;4915842;29;20059;-73
2021/03/03 04:15:06;;;;;;;27.53;14.10;;;7.20;77.30;;;;;;4915338;29;20106;-73
2021/03/03 04:17:32;;;;;;;29.57;14.23;;;7.10;77.30;;;;;;4913915;29;20032;-73
2021/03/03 04:19:58;;;;;;;23.10;13.50;;;7.10;77.50;;;;;;4899397;29;20035;-73
2021/03/03 04:22:23;;;;;;;25.87;12.90;;;7.10;77.80;;;;;;4915729;29;20429;-74
2021/03/03 04:24:49;;;;;;;25.30;13.80;;;7.10;77.70;;;;;;4916092;29;20032;-73
2021/03/03 04:27:15;;;;;;;25.23;14.20;;;7.10;77.70;;;;;;4899236;29;20039;-73
2021/03/03 04:29:41;;;;;;;24.73;13.73;;;7.10;77.70;;;;;;4914052;29;20497;-73
2021/03/03 04:32:07;;;;;;;22.80;13.03;;;7.10;77.50;;;;;;4914684;29;20485;-73
2021/03/03 04:34:32;;;;;;;22.00;12.93;;;7.10;77.70;;;;;;4914119;29;20067;-73
2021/03/03 04:36:58;;;;;;;25.67;14.47;;;7.20;78.10;;;;;;4914299;29;20469;-73
2021/03/03 04:39:24;;;;;;;25.03;13.80;;;7.20;78.30;;;;;;4914185;29;20063;-74
2021/03/03 04:41:49;;;;;;;24.97;14.10;;;7.10;77.50;;;;;;4915503;29;20071;-73
2021/03/03 04:44:15;;;;;;;25.87;13.93;;;7.10;77.70;;;;;;4914813;29;20063;-73
2021/03/03 04:46:41;;;;;;;26.17;13.00;;;7.10;77.70;;;;;;4914001;29;20040;-73
2021/03/03 04:49:07;;;;;;;24.00;13.37;;;7.00;77.90;;;;;;4914430;29;20036;-73
2021/03/03 04:51:35;;;;;;;26.40;13.87;;;7.00;78.20;;;;;;4913463;29;20036;-73
2021/03/03 04:54:01;;;;;;;23.60;13.23;;;7.00;78.30;;;;;;4899106;29;20465;-73
2021/03/03 04:56:27;;;;;;;25.93;13.40;;;7.10;78.50;;;;;;4914687;29;20060;-73
2021/03/03 04:58:53;;;;;;;24.47;13.77;;;7.10;78.30;;;;;;4914593;29;20036;-73
2021/03/03 05:01:18;;;;;;;28.83;14.57;;;7.10;78.10;;;;;;4915444;29;20099;-73
2021/03/03 05:03:44;;;;;;;22.47;13.10;;;7.10;77.80;;;;;;4913746;29;20083;-73
2021/03/03 05:06:10;;;;;;;24.20;13.83;;;7.00;77.80;;;;;;4913924;29;20096;-73
2021/03/03 05:08:35;;;;;;;23.63;13.60;;;7.10;78.20;;;;;;4913629;29;20039;-73
2021/03/03 05:11:01;;;;;;;25.93;14.40;;;7.10;78.00;;;;;;4914315;29;20111;-74
2021/03/03 05:13:27;;;;;;;28.27;12.97;;;7.10;77.60;;;;;;4914348;29;20064;-76
2021/03/03 05:15:53;;;;;;;24.50;13.00;;;7.20;77.80;;;;;;4913199;29;20044;-73
2021/03/03 05:18:18;;;;;;;21.47;12.40;;;7.30;78.00;;;;;;4914030;29;20392;-74
2021/03/03 05:20:44;;;;;;;22.27;13.10;;;7.40;77.80;;;;;;4897665;29;20032;-74
2021/03/03 05:23:09;;;;;;;26.23;13.87;;;7.50;77.60;;;;;;4915566;29;20028;-74
2021/03/03 05:25:35;;;;;;;23.93;14.03;;;7.50;77.30;;;;;;4913305;29;20047;-74
2021/03/03 05:28:01;;;;;;;29.57;14.57;;;7.50;76.90;;;;;;4898470;29;20036;-74
2021/03/03 05:30:27;;;;;;;26.50;14.83;;;7.50;76.90;;;;;;4913588;29;20396;-76
2021/03/03 05:32:53;;;;;;;23.50;13.80;;;7.50;76.70;;;;;;4898060;29;20028;-73
2021/03/03 05:35:19;;;;;;;27.13;14.13;;;7.50;76.90;;;;;;4897763;29;20449;-74
2021/03/03 05:37:45;;;;;;;28.47;15.30;;;7.60;77.20;;;;;;4914390;29;20040;-74
2021/03/03 05:40:11;;;;;;;29.37;14.70;;;7.60;76.80;;;;;;4913735;29;20039;-74
2021/03/03 05:42:37;;;;;;;30.50;15.27;;;7.60;76.50;;;;;;4897767;29;20035;-74
2021/03/03 05:45:04;;;;;;;29.67;16.30;;;7.60;76.70;;;;;;4913678;29;20111;-74
2021/03/03 05:47:36;;;;;;;32.13;16.10;;;7.60;76.30;;;;;;4882011;29;20486;-75
2021/03/03 05:50:06;;;;;;;30.33;16.35;;;7.50;76.50;;;;;;4913595;29;20028;-74
2021/03/03 05:52:33;;;;;;;27.40;14.23;;;7.60;76.30;;;;;;4914576;29;20028;-74
2021/03/03 05:55:04;;;;;;;26.27;14.33;;;7.60;76.40;;;;;;4913806;29;20032;-74
2021/03/03 05:57:31;;;;;;;30.87;14.40;;;7.60;76.40;;;;;;4913323;29;20031;-75
2021/03/03 05:59:57;;;;;;;32.57;14.57;;;7.60;76.50;;;;;;4913463;29;20135;-74
2021/03/03 06:02:24;;;;;;;28.37;14.90;;;7.60;76.90;;;;;;4913864;29;20111;-72
2021/03/03 06:04:49;;;;;;;30.73;15.80;;;7.70;76.80;;;;;;4897174;29;20050;-74
2021/03/03 06:07:15;;;;;;;29.93;15.77;;;7.60;76.20;;;;;;4913890;29;20067;-74
2021/03/03 06:09:41;;;;;;;26.17;15.37;;;7.50;76.20;;;;;;4897405;29;20024;-72
2021/03/03 06:12:08;;;;;;;25.93;14.57;;;7.40;76.30;;;;;;4912789;29;20039;-73
2021/03/03 06:14:34;;;;;;;28.33;14.60;;;7.40;76.70;;;;;;4913842;29;20064;-73
2021/03/03 06:16:59;;;;;;;26.73;13.67;;;7.40;77.10;;;;;;4913205;29;20398;-73
2021/03/03 06:19:25;;;;;;;26.67;14.37;;;7.40;77.30;;;;;;4914522;29;20039;-73
2021/03/03 06:21:51;;;;;;;28.17;14.47;;;7.50;77.50;;;;;;4912640;29;20109;-73
2021/03/03 06:24:17;;;;;;;31.57;15.70;;;7.50;77.30;;;;;;4898109;29;20040;-73
2021/03/03 06:27:00;;;;;;;30.73;15.67;;;7.40;77.20;;;;;;4913553;29;20107;-73
2021/03/03 06:29:26;;;;;;;31.00;16.38;;;7.30;76.80;;;;;;4913411;29;20385;-73
2021/03/03 06:31:52;;;;;;;28.13;16.20;;;7.30;76.70;;;;;;4912526;29;20057;-73
2021/03/03 06:34:47;;;;;;;27.43;13.77;;;7.10;76.90;;;;;;4907758;29;20032;-73
2021/03/03 06:37:12;;;;;;;21.57;13.20;;;7.20;77.90;;;;;;4913984;29;20036;-73
2021/03/03 06:39:38;;;;;;;29.03;14.40;;;7.20;78.20;;;;;;4899965;29;20028;-73
2021/03/03 06:42:05;;;;;;;24.93;13.80;;;7.40;78.40;;;;;;4917081;29;20402;-73
2021/03/03 06:44:51;;;;;;;28.23;14.10;;;7.40;78.30;;;;;;4916807;29;20040;-73
2021/03/03 06:47:17;;;;;;;25.87;14.60;;;7.50;78.20;;;;;;4917663;29;20043;-73
2021/03/03 06:49:43;;;;;;;28.23;13.80;;;7.60;78.30;;;;;;4915751;29;20036;-73
2021/03/03 06:52:09;;;;;;;27.07;15.13;;;7.60;78.20;;;;;;4900543;29;20029;-73
2021/03/03 06:54:35;;;;;;;30.07;15.60;;;7.70;78.10;;;;;;4915709;29;20031;-75
2021/03/03 06:57:07;;;;;;;25.60;15.23;;;7.80;77.80;;;;;;4911265;29;20044;-74
2021/03/03 06:59:35;;;;;;;26.87;14.40;;;7.90;77.60;;;;;;4903883;29;20031;-74
2021/03/03 07:02:06;;;;;;;30.97;14.50;;;8.10;77.50;;;;;;4923938;29;20044;-74
2021/03/03 07:04:35;;;;;;;26.93;15.20;;;8.20;77.30;;;;;;4911093;29;20147;-74
2021/03/03 07:07:14;;;;;;;30.03;15.33;;;8.40;76.70;;;;;;4905566;29;20040;-74
2021/03/03 07:09:48;;;;;;;30.70;15.07;;;8.60;76.60;;;;;;4890849;29;20028;-75
2021/03/03 07:12:32;;;;;;;25.57;14.40;;;8.90;76.30;;;;;;4906147;29;20472;-74
2021/03/03 07:15:06;;;;;;;23.83;13.67;;;9.10;75.60;;;;;;4920483;29;20311;-74
2021/03/03 07:17:32;;;;;;;27.20;14.03;;;9.40;75.30;;;;;;4907737;29;20068;-75
2021/03/03 07:20:05;;;;;;;25.47;14.47;;;9.70;74.70;;;;;;4904779;29;20148;-74
2021/03/03 07:22:42;;;;;;;30.00;15.07;;;9.80;74.10;;;;;;4909756;29;20126;-74
2021/03/03 07:25:12;;;;;;;30.93;16.13;;;9.90;73.50;;;;;;4908515;29;20040;-74
2021/03/03 07:27:39;;;;;;;31.23;16.70;;;10.00;73.20;;;;;;4907401;29;20031;-74
2021/03/03 07:30:10;;;;;;;34.73;17.77;;;10.20;72.80;;;;;;4890735;29;20047;-73
2021/03/03 07:32:36;;;;;;;29.87;17.57;;;10.30;72.50;;;;;;4929565;29;20079;-74
2021/03/03 07:35:04;;;;;;;33.27;19.77;;;10.50;72.10;;;;;;4917714;29;20039;-74
2021/03/03 07:37:35;;;;;;;38.73;21.63;;;10.60;72.00;;;;;;4906324;29;20082;-75
2021/03/03 07:40:13;;;;;;;33.00;20.90;;;10.80;71.80;;;;;;4889161;29;20715;-73
2021/03/03 07:42:40;;;;;;;34.80;20.83;;;11.10;71.10;;;;;;4905480;29;20043;-76
2021/03/03 07:45:12;;;;;;;37.17;20.93;;;11.40;70.20;;;;;;4901802;29;20047;-74
2021/03/03 07:47:42;;;;;;;42.50;24.47;;;11.60;68.60;;;;;;4903434;29;20048;-75
2021/03/03 07:50:11;;;;;;;33.07;20.23;;;11.80;68.10;;;;;;4903243;29;20127;-74
2021/03/03 07:52:39;;;;;;;39.80;21.53;;;11.80;67.30;;;;;;4919835;29;20020;-74
2021/03/03 07:55:06;;;;;;;38.40;22.13;;;11.80;67.00;;;;;;4888894;29;20107;-75
2021/03/03 07:57:34;;;;;;;39.47;24.33;;;11.80;67.00;;;;;;4903719;29;20044;-73
2021/03/03 08:00:05;;;;;;;35.57;21.50;;;11.70;67.10;;;;;;4903541;29;20651;-74
2021/03/03 08:02:44;;;;;;;43.00;23.20;;;11.70;66.80;;;;;;4914735;29;20039;-75
2021/03/03 08:05:11;;;;;;;50.70;29.30;;;11.70;67.00;;;;;;4913560;29;20028;-74
2021/03/03 08:07:37;;;;;;;51.13;30.47;;;11.70;67.50;;;;;;4908477;29;20474;-75
2021/03/03 08:10:14;;;;;;;49.87;30.40;;;11.80;67.60;;;;;;4922479;29;20072;-74
2021/03/03 08:12:59;;;;;;;47.27;30.17;;;11.90;67.60;;;;;;4915641;29;20048;-74
2021/03/03 08:15:43;;;;;;;42.53;27.77;;;12.10;67.50;;;;;;4918776;29;20056;-75
2021/03/03 08:18:15;;;;;;;47.33;25.73;;;12.60;66.80;;;;;;4919936;29;20056;-75
2021/03/03 08:20:55;;;;;;;39.97;25.02;;;13.10;65.30;;;;;;4933169;29;20031;-74
2021/03/03 08:23:33;;;;;;;43.77;26.20;;;13.60;64.00;;;;;;4918134;29;20441;-74
2021/03/03 08:26:29;;;;;;;36.00;22.80;;;14.10;63.50;;;;;;4929268;29;20456;-75
2021/03/03 08:29:12;;;;;;;42.35;23.60;;;14.60;61.30;;;;;;4929068;29;20046;-75
2021/03/03 08:31:39;;;;;;;;;;;15.10;59.90;;;;;;4928166;29;20071;-75
2021/03/03 08:34:07;;;;;;;57.38;34.72;;;15.40;60.50;;;;;;4914143;29;19947;-75
2021/03/03 08:36:34;;;;;;;53.95;35.53;;;15.50;59.60;;;;;;4922437;29;20028;-74
2021/03/03 08:39:01;;;;;;;53.28;31.25;;;15.40;59.90;;;;;;4925086;29;20044;-73
2021/03/03 08:41:27;;;;;;;48.35;30.95;;;15.50;58.90;;;;;;4929636;29;20035;-74
2021/03/03 08:44:14;;;;;;;47.92;29.00;;;15.40;58.70;;;;;;4917172;29;20040;-75
2021/03/03 08:46:44;;;;;;;41.97;27.55;;;15.60;58.50;;;;;;4911934;29;20024;-75
2021/03/03 08:49:10;;;;;;;43.60;28.30;;;16.20;57.10;;;;;;4926141;29;20914;-75
2021/03/03 08:51:40;;;;;;;41.05;28.15;;;16.70;55.70;;;;;;4914738;29;20032;-75
2021/03/03 08:54:20;;;;;;;47.65;29.83;;;17.20;53.60;;;;;;4917736;29;20031;-76
2021/03/03 08:56:48;;;;;;;51.20;33.63;;;17.60;52.40;;;;;;4917194;29;20433;-76
2021/03/03 08:59:32;;;;;;;48.13;32.45;;;18.10;51.60;;;;;;4914523;29;20036;-76
2021/03/03 09:02:06;;;;;;;47.03;30.55;;;18.60;50.80;;;;;;4912038;29;20139;-74
2021/03/03 09:04:42;;;;;;;49.90;33.25;;;18.90;49.50;;;;;;4918601;29;20028;-75
2021/03/03 09:07:21;;;;;;;44.17;27.30;;;19.30;48.50;;;;;;4918436;29;20063;-74
2021/03/03 09:09:49;;;;;;;42.88;27.38;;;19.50;47.50;;;;;;4920316;29;20167;-74
2021/03/03 09:12:29;;;;;;;45.78;29.15;;;19.50;47.30;;;;;;4916121;29;20029;-75
2021/03/03 09:14:57;;;;;;;36.75;25.85;;;19.50;47.10;;;;;;4914309;29;20489;-74
2021/03/03 09:17:26;;;;;;;36.25;25.85;;;19.60;46.50;;;;;;4915149;29;20040;-74
2021/03/03 09:19:53;;;;;;;35.00;24.30;;;19.70;46.10;;;;;;4913332;29;20040;-76
2021/03/03 09:22:24;;;;;;;42.65;28.05;;;19.90;46.10;;;;;;4915560;29;20028;-74
2021/03/03 09:24:51;;;;;;;42.63;28.48;;;20.10;46.30;;;;;;4915064;29;20060;-75
2021/03/03 09:27:19;;;;;;;40.72;27.17;;;20.30;46.30;;;;;;4912441;29;20035;-74
2021/03/03 09:29:46;;;;;;;41.08;28.40;;;20.50;45.40;;;;;;4933088;29;20480;-74
2021/03/03 09:32:21;;;;;;;43.40;27.02;;;20.70;45.00;;;;;;4914288;29;20058;-74
2021/03/03 09:34:55;;;;;;;42.55;27.45;;;20.90;44.90;;;;;;4934207;29;20034;-74
2021/03/03 09:37:22;;;;;;;39.47;27.75;;;21.10;44.10;;;;;;4930315;29;20054;-74
2021/03/03 09:39:59;;;;;;;37.45;27.02;;;21.20;44.40;;;;;;4919459;29;20047;-74
2021/03/03 09:42:40;;;;;;;38.95;27.70;;;21.30;43.80;;;;;;4921111;29;20024;-74
2021/03/03 09:45:08;;;;;;;36.60;26.50;;;21.40;43.60;;;;;;4913032;29;20350;-74
2021/03/03 09:47:37;;;;;;;39.72;28.27;;;21.40;43.10;;;;;;4913987;29;20123;-74
2021/03/03 09:50:13;;;;;;;43.03;28.17;;;21.30;42.70;;;;;;4912933;29;20064;-74
2021/03/03 09:52:41;;;;;;;37.83;25.98;;;21.30;43.30;;;;;;4913781;29;20047;-74
2021/03/03 09:55:13;;;;;;;39.85;26.45;;;21.40;43.40;;;;;;4895197;29;20100;-74
2021/03/03 09:57:40;;;;;;;37.35;27.15;;;21.40;43.20;;;;;;4928972;29;20480;-74
2021/03/03 10:00:15;;;;;;;35.25;26.60;;;21.40;43.10;;;;;;4916970;29;20043;-75
2021/03/03 10:03:06;;;;;;;41.00;26.92;;;21.50;43.40;;;;;;4898198;29;20056;-74
2021/03/03 10:05:33;;;;;;;39.55;26.20;;;21.70;43.00;;;;;;4896242;29;20155;-75
2021/03/03 10:08:02;;;;;;;37.45;26.77;;;21.80;42.90;;;;;;4904349;29;20059;-75
2021/03/03 10:10:32;;;;;;;40.15;27.88;;;21.80;42.50;;;;;;4917180;29;20095;-74
2021/03/03 10:12:58;;;;;;;38.33;27.13;;;21.80;42.50;;;;;;4932367;29;20027;-75
2021/03/03 10:15:34;;;;;;;38.42;27.67;;;21.90;42.50;;;;;;4935837;29;20059;-75
2021/03/03 10:18:02;;;;;;;37.88;27.92;;;22.20;42.60;;;;;;4920466;29;20032;-75
2021/03/03 10:20:35;;;;;;;39.80;27.77;;;22.30;41.30;;;;;;4928126;29;20050;-75
2021/03/03 10:23:19;;;;;;;;;;;22.10;41.90;;;;;;4934071;29;20023;-76
2021/03/03 10:25:59;;;;;;;36.90;28.23;;;22.10;42.50;;;;;;4934043;29;19994;-75
2021/03/03 10:28:26;;;;;;;44.78;30.23;;;22.30;42.40;;;;;;4935176;29;20032;-75
2021/03/03 10:30:54;;;;;;;42.20;32.05;;;22.50;41.80;;;;;;4918997;29;20038;-73
2021/03/03 10:33:37;;;;;;;47.38;33.30;;;22.50;41.20;;;;;;4923950;29;20032;-74
2021/03/03 10:36:04;;;;;;;;;;;22.40;41.00;;;;;;4934570;29;20036;-75
2021/03/03 10:38:30;;;;;;;40.78;29.63;;;22.50;41.80;;;;;;4933736;29;19915;-73
2021/03/03 10:40:58;;;;;;;45.15;31.48;;;22.60;42.10;;;;;;4919117;29;20402;-74
2021/03/03 10:43:26;;;;;;;43.97;31.25;;;22.80;40.90;;;;;;4934078;29;20098;-74
2021/03/03 10:46:11;;;;;;;41.78;30.75;;;23.00;40.90;;;;;;4935967;29;20062;-74
2021/03/03 10:48:37;;;;;;;38.78;28.13;;;23.10;40.50;;;;;;4933633;29;20488;-74
2021/03/03 10:51:02;;;;;;;39.40;29.08;;;23.20;40.60;;;;;;4932434;29;20174;-75
2021/03/03 10:53:45;;;;;;;37.28;28.65;;;23.30;40.40;;;;;;4917562;29;20126;-75
2021/03/03 10:56:31;;;;;;;;;;;23.40;40.00;;;;;;4917656;29;20491;-75
2021/03/03 10:59:00;;;;;;;39.42;28.08;;;23.30;40.40;;;;;;4936986;29;19911;-74
2021/03/03 11:02:07;;;;;;;38.08;28.05;;;23.40;40.00;;;;;;4922424;29;20036;-75
2021/03/03 11:04:51;;;;;;;37.97;28.45;;;23.40;40.60;;;;;;4926412;29;20063;-74
2021/03/03 11:07:17;;;;;;;44.25;29.80;;;23.60;40.00;;;;;;4932814;29;20043;-75
2021/03/03 11:09:52;;;;;;;44.25;30.27;;;23.50;39.60;;;;;;4904256;29;20122;-74
2021/03/03 11:12:25;;;;;;;39.13;28.48;;;23.40;39.80;;;;;;4934477;29;20034;-74
2021/03/03 11:14:51;;;;;;;42.42;27.90;;;23.40;40.30;;;;;;4934732;29;20051;-75
2021/03/03 11:17:17;;;;;;;40.80;27.67;;;23.60;40.20;;;;;;4922380;29;20092;-76
2021/03/03 11:19:43;;;;;;;40.38;26.08;;;23.70;39.40;;;;;;4913541;29;20048;-76
2021/03/03 11:22:08;;;;;;;41.75;28.75;;;23.80;39.40;;;;;;4921377;29;20028;-75
2021/03/03 11:24:34;;;;;;;41.00;29.05;;;23.70;39.20;;;;;;4929151;29;20050;-76
2021/03/03 11:27:00;;;;;;;41.30;29.70;;;23.60;38.90;;;;;;4921180;29;20040;-75
2021/03/03 11:29:26;;;;;;;42.72;28.98;;;23.40;38.90;;;;;;4925993;29;20750;-76
2021/03/03 11:31:51;;;;;;;46.78;29.55;;;23.30;39.60;;;;;;4931260;29;20083;-76
2021/03/03 11:34:17;;;;;;;44.85;31.17;;;23.30;39.30;;;;;;4934626;29;20374;-75
2021/03/03 11:36:43;;;;;;;41.67;27.15;;;23.20;39.10;;;;;;4919443;29;20027;-74
2021/03/03 11:39:10;;;;;;;42.45;28.45;;;23.10;39.70;;;;;;4933472;29;20044;-75
2021/03/03 11:41:36;;;;;;;45.50;28.33;;;23.30;39.30;;;;;;4930401;29;20058;-74
2021/03/03 11:44:03;;;;;;;43.05;28.42;;;23.40;39.90;;;;;;4916905;29;20107;-74
2021/03/03 11:46:28;;;;;;;43.75;27.90;;;23.60;39.00;;;;;;4898672;29;20036;-75
2021/03/03 11:48:54;;;;;;;44.83;29.15;;;23.60;38.60;;;;;;4901209;29;20179;-76
2021/03/03 11:51:20;;;;;;;48.85;28.52;;;23.50;38.60;;;;;;4926463;29;20123;-77
2021/03/03 11:53:45;;;;;;;47.40;29.00;;;23.40;39.00;;;;;;4908175;29;20414;-76
2021/03/03 11:56:11;;;;;;;42.00;29.10;;;23.30;38.90;;;;;;4914583;29;20039;-74
2021/03/03 11:58:37;;;;;;;40.70;28.45;;;23.30;39.00;;;;;;4918632;29;20601;-75
2021/03/03 12:01:03;;;;;;;42.08;28.58;;;23.30;39.30;;;;;;4933575;29;20042;-74
2021/03/03 12:03:28;;;;;;;40.63;27.23;;;23.40;39.20;;;;;;4929669;29;20032;-75
2021/03/03 12:05:54;;;;;;;42.53;28.88;;;23.40;39.10;;;;;;4918660;29;20039;-75
2021/03/03 12:08:20;;;;;;;41.13;28.15;;;23.50;38.70;;;;;;4915771;29;20035;-75
2021/03/03 12:10:45;;;;;;;39.70;28.63;;;23.40;38.80;;;;;;4935484;29;20028;-76
2021/03/03 12:13:11;;;;;;;41.78;27.90;;;23.30;38.60;;;;;;4932282;29;20036;-77
2021/03/03 12:15:37;;;;;;;44.63;27.17;;;23.10;39.40;;;;;;4935338;29;20487;-76
2021/03/03 12:18:03;;;;;;;38.67;26.77;;;23.10;39.70;;;;;;4920208;29;20599;-76
2021/03/03 12:20:29;;;;;;;43.13;27.67;;;23.10;40.30;;;;;;4915714;29;20052;-76
2021/03/03 12:22:56;;;;;;;36.00;25.48;;;23.00;39.10;;;;;;4916402;29;20440;-75
2021/03/03 12:25:22;;;;;;;41.38;25.48;;;22.90;39.90;;;;;;4915319;29;20136;-75
2021/03/03 12:27:48;;;;;;;42.47;26.13;;;22.90;39.80;;;;;;4914316;29;20068;-75
2021/03/03 12:30:14;;;;;;;41.85;26.15;;;22.90;39.30;;;;;;4909816;29;20079;-74
2021/03/03 12:32:40;;;;;;;46.40;26.83;;;22.80;39.00;;;;;;4895947;29;20528;-76
2021/03/03 12:35:06;;;;;;;44.03;28.30;;;22.80;39.40;;;;;;4916184;29;20060;-75
2021/03/03 12:37:31;;;;;;;41.20;24.73;;;22.70;39.50;;;;;;4914064;29;20036;-75
2021/03/03 12:39:57;;;;;;;37.10;22.40;;;22.60;40.50;;;;;;4914944;29;20032;-75
2021/03/03 12:42:23;;;;;;;41.28;23.67;;;22.60;39.60;;;;;;4926314;29;20464;-75